AIRPORT MAP

 RUNWAY INFORMATION

Runway 17 Runway length 11417 ft Runway width 148 ft
Runway elevation 151 ft Runway displaced threshold 984 ft Runway heading 169
Runway 35 Runway length 11417 ft Runway width 148 ft
Runway elevation 226 ft Runway displaced threshold 492 ft Runway heading 349

 AIRPORT FREQUENCIES

Type APP Name APP Frequency 121.1 MHZ
Type ATIS Name ATIS Frequency 124.3 MHZ
Type TWR Name TWR Frequency 118 MHZ

 AIRPORT NEAR NAVIGATION AIDS

Type NDB Name Porto Frequency 367 KHZ
Type NDB Name Porto Frequency 327 KHZ
Type VOR-DME Name Porto Frequency 114100 KHZ

 METAR AND TAF INFORMATION

METAR FOR LPPR
ADDS - METARS form results

(0019 UTC 07 July 2020)
Data provider http://aviationweather.gov/metar/data/
 
METAR text: LPPR 070000Z 18008KT CAVOK 18/16 Q1014
Conditions at: LPPR (PORTO/PEDRAS RUB, PT) observed 0000 UTC 07 July 2020
Temperature: 18.0°C (64°F)
Dewpoint: 16.0°C (61°F) [RH = 88%]
Pressure (altimeter): 29.94 inches Hg (1014.0 mb)
Winds: from the S (180 degrees) at 9 MPH (8 knots; 4.1 m/s)
Visibility: 6 or more miles (10+ km)
Ceiling: ceiling and visibility are OK
Clouds: unknown
Weather: no significant weather observed at this time

METAR text: LPPR 062330Z 19006KT CAVOK 18/16 Q1015
Conditions at: LPPR (PORTO/PEDRAS RUB, PT) observed 2330 UTC 06 July 2020
Temperature: 18.0°C (64°F)
Dewpoint: 16.0°C (61°F) [RH = 88%]
Pressure (altimeter): 29.97 inches Hg (1015.0 mb)
Winds: from the S (190 degrees) at 7 MPH (6 knots; 3.1 m/s)
Visibility: 6 or more miles (10+ km)
Ceiling: ceiling and visibility are OK
Clouds: unknown
Weather: no significant weather observed at this time

Forecast for: LPPR (PORTO/PEDRAS RUB, PT)
Text: TAF LPPR 062300Z 0700/0724 18008KT CAVOK
Forecast period: 0000 to 2100 UTC 07 July 2020
Forecast type: FROM: standard forecast or significant change
Winds: from the S (180 degrees) at 9 MPH (8 knots; 4.1 m/s)
Visibility: 6 or more miles 10+ km)
Ceiling: unknown
Clouds: missing
Weather: NSW  (no significant weather)
Text: PROB30
Forecast period: 0300 to 2100 UTC 07 July 2020
Forecast type: TEMPORARY: The following changes expected for less than half the time period
Visibility: 3 miles (5 km)
Ceiling: 800 feet AGL
Clouds: broken clouds at 800 feet AGL
Weather: BR  (mist)
Text: TEMPO 0703/0721 5000 BR BKN008
Forecast period: 2100 UTC 07 July 2020 to 0000 UTC 08 July 2020
Forecast type: BECOMING: Conditions expected to become as follows by 0000 UTC 08 July 2020
Winds: from the S (180 degrees) at 9 MPH (8 knots; 4.1 m/s)
Visibility: 3 miles (5 km)
Ceiling: 400 feet AGL
Clouds: scattered clouds at 200 feet AGL
broken clouds at 400 feet AGL
Weather: BR  (mist)